Terminal Aerodrome Forecast
Issued by NWS Sterling, VA

Current Version | Previous Version | Graphics & Text | Print | Product List | Glossary On
Versions: 1 2 3 4 5 6 7 8 9 10 11 12 13 14 15 16 17 18 19 20 21 22 23 24 25 26 27
000
FTUS41 KLWX 252300
TAFDCA
TAF
KDCA 252320Z 2600/2624 VRB03KT P6SM BKN100
     FM260500 08005KT 3SM -RA OVC050
     FM261000 07009KT 2SM -RA OVC015
     FM261100 07009KT 1SM -RASN OVC015
     FM261700 05009KT 2SM -RA OVC008
     FM262000 04009KT 2SM -RASN OVC008
     FM262300 02010KT 2SM -SN OVC008=

USA.gov is the U.S. government's official web portal to all federal, state and local government web resources and services.